KBAB

Beale AFB Airport

Marysville, California, USA
METAR KBAB 180658Z AUTO 10007KT 10SM CLR 12/04 A2994 RMK AO2 SLP142 T01200040 $
Observed Flight Rules
Feb-18 @ 06:58 UTC (14 minutes ago) Visual Flight Rules
Wind Visibility Clouds
100° at 7 knots 10 miles
  • Clear skies
Temperatures Readings
Current 12°C / 54°F
Dewpoint 4°C / 39°F
Humidity 58%
Altimeter 29.94" Hg
Pressure 1014.2 hPa
Elevation 34
METAR KBAB 180658Z AUTO 10007KT 10SM CLR 12/04 A2994 RMK AO2 SLP142 T01200040 $
Observed Flight Rules
Feb-18 @ 06:58 UTC
(14 minutes ago)
VFR
Wind Visibility
100° at 7 knots 10 miles
Clouds
  • Clear skies
Temperature Dewpoint
12°C / 54°F 4°C / 39°F
Humidity Altimeter Pressure
58% 29.94" Hg 1014.2 hPa